sensor_id;sensor_type;location;lat;lon;timestamp;pressure;altitude;pressure_sealevel;temperature;humidity
59194;BME280;44967;48.598;15.650;2023-02-15T00:01:23;99875.00;;;2.65;72.41
59194;BME280;44967;48.598;15.650;2023-02-15T00:03:49;99873.28;;;2.66;72.80
59194;BME280;44967;48.598;15.650;2023-02-15T00:06:15;99875.00;;;2.65;73.04
59194;BME280;44967;48.598;15.650;2023-02-15T00:08:41;99868.03;;;2.64;72.71
59194;BME280;44967;48.598;15.650;2023-02-15T00:11:08;99875.75;;;2.61;72.73
59194;BME280;44967;48.598;15.650;2023-02-15T00:13:34;99861.94;;;2.64;72.78
59194;BME280;44967;48.598;15.650;2023-02-15T00:16:11;99869.06;;;2.71;71.82
59194;BME280;44967;48.598;15.650;2023-02-15T00:18:38;99874.44;;;2.77;71.52
59194;BME280;44967;48.598;15.650;2023-02-15T00:21:09;99871.88;;;2.78;71.47
59194;BME280;44967;48.598;15.650;2023-02-15T00:23:36;99870.06;;;2.76;72.03
59194;BME280;44967;48.598;15.650;2023-02-15T00:26:09;99874.59;;;2.83;71.53
59194;BME280;44967;48.598;15.650;2023-02-15T00:28:35;99872.91;;;2.85;71.85
59194;BME280;44967;48.598;15.650;2023-02-15T00:33:29;99871.72;;;2.72;72.34
59194;BME280;44967;48.598;15.650;2023-02-15T00:35:59;99883.28;;;2.82;71.93
59194;BME280;44967;48.598;15.650;2023-02-15T00:38:29;99878.47;;;2.64;72.70
59194;BME280;44967;48.598;15.650;2023-02-15T00:40:57;99878.16;;;2.52;73.79
59194;BME280;44967;48.598;15.650;2023-02-15T00:43:24;99866.94;;;2.56;73.25
59194;BME280;44967;48.598;15.650;2023-02-15T00:45:50;99871.22;;;2.54;73.18
59194;BME280;44967;48.598;15.650;2023-02-15T00:48:16;99861.81;;;2.61;73.19
59194;BME280;44967;48.598;15.650;2023-02-15T00:50:45;99870.72;;;2.67;73.35
59194;BME280;44967;48.598;15.650;2023-02-15T00:53:11;99858.44;;;2.63;73.28
59194;BME280;44967;48.598;15.650;2023-02-15T00:55:36;99852.38;;;2.64;71.93
59194;BME280;44967;48.598;15.650;2023-02-15T00:58:02;99858.69;;;2.41;72.31
59194;BME280;44967;48.598;15.650;2023-02-15T01:00:28;99854.34;;;2.42;72.38
59194;BME280;44967;48.598;15.650;2023-02-15T01:02:53;99854.63;;;2.51;72.34
59194;BME280;44967;48.598;15.650;2023-02-15T01:05:19;99850.44;;;2.57;71.88
59194;BME280;44967;48.598;15.650;2023-02-15T01:07:45;99840.13;;;2.62;72.44
59194;BME280;44967;48.598;15.650;2023-02-15T01:10:10;99843.28;;;2.50;73.09
59194;BME280;44967;48.598;15.650;2023-02-15T01:12:36;99837.28;;;2.53;72.86
59194;BME280;44967;48.598;15.650;2023-02-15T01:15:01;99832.09;;;2.54;73.00
59194;BME280;44967;48.598;15.650;2023-02-15T01:17:27;99838.16;;;2.53;73.06
59194;BME280;44967;48.598;15.650;2023-02-15T01:19:52;99834.75;;;2.56;72.81
59194;BME280;44967;48.598;15.650;2023-02-15T01:22:18;99833.03;;;2.56;72.85
59194;BME280;44967;48.598;15.650;2023-02-15T01:24:44;99827.81;;;2.56;72.56
59194;BME280;44967;48.598;15.650;2023-02-15T01:27:10;99825.78;;;2.46;73.16
59194;BME280;44967;48.598;15.650;2023-02-15T01:29:36;99823.91;;;2.41;73.03
59194;BME280;44967;48.598;15.650;2023-02-15T01:32:02;99822.16;;;2.41;73.45
59194;BME280;44967;48.598;15.650;2023-02-15T01:34:28;99821.00;;;2.28;73.67
59194;BME280;44967;48.598;15.650;2023-02-15T01:36:54;99807.09;;;2.29;73.76
59194;BME280;44967;48.598;15.650;2023-02-15T01:39:20;99809.81;;;2.34;73.53
59194;BME280;44967;48.598;15.650;2023-02-15T01:41:45;99811.34;;;2.26;73.22
59194;BME280;44967;48.598;15.650;2023-02-15T01:47:10;99806.38;;;2.35;72.53
59194;BME280;44967;48.598;15.650;2023-02-15T01:49:38;99792.31;;;2.30;73.06
59194;BME280;44967;48.598;15.650;2023-02-15T01:52:07;99795.94;;;2.35;73.31
59194;BME280;44967;48.598;15.650;2023-02-15T01:54:36;99796.22;;;2.46;72.44
59194;BME280;44967;48.598;15.650;2023-02-15T01:57:07;99798.91;;;2.49;71.78
59194;BME280;44967;48.598;15.650;2023-02-15T01:59:35;99786.72;;;2.49;72.46
59194;BME280;44967;48.598;15.650;2023-02-15T02:02:05;99785.88;;;2.50;72.08
59194;BME280;44967;48.598;15.650;2023-02-15T02:04:42;99789.34;;;2.49;72.32
59194;BME280;44967;48.598;15.650;2023-02-15T02:07:12;99781.50;;;2.49;72.15
59194;BME280;44967;48.598;15.650;2023-02-15T02:09:40;99773.66;;;2.48;72.22
59194;BME280;44967;48.598;15.650;2023-02-15T02:12:06;99785.50;;;2.35;72.00
59194;BME280;44967;48.598;15.650;2023-02-15T02:14:32;99777.03;;;2.11;72.72
59194;BME280;44967;48.598;15.650;2023-02-15T02:17:12;99771.25;;;2.22;72.37
59194;BME280;44967;48.598;15.650;2023-02-15T02:20:06;99777.41;;;2.24;73.30
59194;BME280;44967;48.598;15.650;2023-02-15T02:22:49;99775.72;;;2.26;74.08
59194;BME280;44967;48.598;15.650;2023-02-15T02:31:14;99767.13;;;2.30;73.65
59194;BME280;44967;48.598;15.650;2023-02-15T02:42:01;99761.34;;;2.42;72.31
59194;BME280;44967;48.598;15.650;2023-02-15T02:44:38;99749.81;;;2.34;72.37
59194;BME280;44967;48.598;15.650;2023-02-15T02:47:22;99755.91;;;2.33;73.26
59194;BME280;44967;48.598;15.650;2023-02-15T02:49:57;99764.56;;;2.32;73.39
59194;BME280;44967;48.598;15.650;2023-02-15T02:52:39;99761.03;;;2.30;73.10
59194;BME280;44967;48.598;15.650;2023-02-15T02:55:12;99755.50;;;2.18;74.00
59194;BME280;44967;48.598;15.650;2023-02-15T02:57:47;99753.81;;;2.20;73.47
59194;BME280;44967;48.598;15.650;2023-02-15T03:00:14;99751.22;;;2.20;73.20
59194;BME280;44967;48.598;15.650;2023-02-15T03:02:44;99740.97;;;2.27;73.43
59194;BME280;44967;48.598;15.650;2023-02-15T03:05:15;99740.91;;;2.26;73.36
59194;BME280;44967;48.598;15.650;2023-02-15T03:07:42;99740.16;;;2.30;73.42
59194;BME280;44967;48.598;15.650;2023-02-15T03:10:10;99743.38;;;2.20;73.37
59194;BME280;44967;48.598;15.650;2023-02-15T03:12:39;99742.44;;;2.18;73.88
59194;BME280;44967;48.598;15.650;2023-02-15T03:15:12;99745.75;;;2.11;73.76
59194;BME280;44967;48.598;15.650;2023-02-15T03:17:45;99746.75;;;2.16;73.09
59194;BME280;44967;48.598;15.650;2023-02-15T03:20:14;99735.72;;;2.26;72.75
59194;BME280;44967;48.598;15.650;2023-02-15T03:22:56;99746.13;;;2.26;73.21
59194;BME280;44967;48.598;15.650;2023-02-15T03:25:35;99746.13;;;2.24;73.01
59194;BME280;44967;48.598;15.650;2023-02-15T03:28:06;99745.16;;;2.21;73.02
59194;BME280;44967;48.598;15.650;2023-02-15T03:30:35;99754.59;;;2.16;73.33
59194;BME280;44967;48.598;15.650;2023-02-15T03:33:02;99739.09;;;2.22;72.95
59194;BME280;44967;48.598;15.650;2023-02-15T03:35:36;99749.75;;;2.31;72.68
59194;BME280;44967;48.598;15.650;2023-02-15T03:38:06;99741.75;;;2.23;72.04
59194;BME280;44967;48.598;15.650;2023-02-15T03:40:38;99744.22;;;2.19;73.17
59194;BME280;44967;48.598;15.650;2023-02-15T03:43:52;99747.44;;;2.09;72.37
59194;BME280;44967;48.598;15.650;2023-02-15T03:48:52;99731.81;;;2.10;72.79
59194;BME280;44967;48.598;15.650;2023-02-15T03:51:22;99732.88;;;2.17;72.24
59194;BME280;44967;48.598;15.650;2023-02-15T03:54:08;99742.44;;;2.16;72.56
59194;BME280;44967;48.598;15.650;2023-02-15T03:56:38;99731.94;;;2.13;72.55
59194;BME280;44967;48.598;15.650;2023-02-15T03:59:04;99736.81;;;2.01;73.07
59194;BME280;44967;48.598;15.650;2023-02-15T04:02:16;99731.69;;;2.04;72.60
59194;BME280;44967;48.598;15.650;2023-02-15T04:04:46;99736.00;;;2.04;73.02
59194;BME280;44967;48.598;15.650;2023-02-15T04:07:13;99720.63;;;2.13;72.25
59194;BME280;44967;48.598;15.650;2023-02-15T04:09:39;99730.09;;;2.09;71.92
59194;BME280;44967;48.598;15.650;2023-02-15T04:12:23;99733.53;;;2.10;71.77
59194;BME280;44967;48.598;15.650;2023-02-15T04:14:49;99726.53;;;2.07;72.02
59194;BME280;44967;48.598;15.650;2023-02-15T04:17:33;99729.41;;;2.16;72.15
59194;BME280;44967;48.598;15.650;2023-02-15T04:19:59;99733.84;;;2.20;72.52
59194;BME280;44967;48.598;15.650;2023-02-15T04:22:43;99735.38;;;2.14;72.44
59194;BME280;44967;48.598;15.650;2023-02-15T04:25:27;99726.41;;;2.03;72.85
59194;BME280;44967;48.598;15.650;2023-02-15T04:27:54;99728.88;;;1.97;72.60
59194;BME280;44967;48.598;15.650;2023-02-15T04:30:23;99732.25;;;1.94;73.29
59194;BME280;44967;48.598;15.650;2023-02-15T04:32:48;99727.91;;;1.93;72.82
59194;BME280;44967;48.598;15.650;2023-02-15T04:35:14;99728.94;;;2.00;73.24
59194;BME280;44967;48.598;15.650;2023-02-15T04:37:41;99721.06;;;1.97;73.20
59194;BME280;44967;48.598;15.650;2023-02-15T04:40:09;99719.44;;;2.02;73.50
59194;BME280;44967;48.598;15.650;2023-02-15T04:42:35;99722.03;;;2.02;72.93
59194;BME280;44967;48.598;15.650;2023-02-15T04:45:01;99720.38;;;2.04;73.31
59194;BME280;44967;48.598;15.650;2023-02-15T04:47:26;99717.69;;;2.01;73.07
59194;BME280;44967;48.598;15.650;2023-02-15T04:49:52;99711.72;;;2.06;72.87
59194;BME280;44967;48.598;15.650;2023-02-15T04:52:18;99713.38;;;2.03;73.57
59194;BME280;44967;48.598;15.650;2023-02-15T04:54:44;99716.19;;;2.10;73.30
59194;BME280;44967;48.598;15.650;2023-02-15T04:57:09;99711.59;;;2.02;73.03
59194;BME280;44967;48.598;15.650;2023-02-15T04:59:35;99721.19;;;2.03;72.22
59194;BME280;44967;48.598;15.650;2023-02-15T05:02:00;99711.59;;;2.02;73.20
59194;BME280;44967;48.598;15.650;2023-02-15T05:04:27;99719.56;;;2.06;73.22
59194;BME280;44967;48.598;15.650;2023-02-15T05:06:52;99710.56;;;1.94;73.15
59194;BME280;44967;48.598;15.650;2023-02-15T05:09:18;99715.16;;;2.04;73.00
59194;BME280;44967;48.598;15.650;2023-02-15T05:11:45;99712.63;;;2.07;72.24
59194;BME280;44967;48.598;15.650;2023-02-15T05:14:10;99718.09;;;2.17;72.58
59194;BME280;44967;48.598;15.650;2023-02-15T05:16:36;99722.47;;;2.17;72.27
59194;BME280;44967;48.598;15.650;2023-02-15T05:19:02;99714.53;;;2.14;72.29
59194;BME280;44967;48.598;15.650;2023-02-15T05:21:28;99729.84;;;2.00;72.97
59194;BME280;44967;48.598;15.650;2023-02-15T05:23:53;99728.34;;;1.78;72.81
59194;BME280;44967;48.598;15.650;2023-02-15T05:26:23;99732.47;;;1.70;73.04
59194;BME280;44967;48.598;15.650;2023-02-15T05:29:08;99728.03;;;1.66;72.88
59194;BME280;44967;48.598;15.650;2023-02-15T05:31:35;99731.03;;;1.80;73.29
59194;BME280;44967;48.598;15.650;2023-02-15T05:34:00;99735.28;;;1.76;72.84
59194;BME280;44967;48.598;15.650;2023-02-15T05:36:26;99737.63;;;1.67;72.68
59194;BME280;44967;48.598;15.650;2023-02-15T05:38:53;99739.25;;;1.64;72.89
59194;BME280;44967;48.598;15.650;2023-02-15T05:41:19;99738.78;;;1.78;72.94
59194;BME280;44967;48.598;15.650;2023-02-15T05:43:45;99735.34;;;1.79;73.25
59194;BME280;44967;48.598;15.650;2023-02-15T05:46:11;99733.91;;;1.90;72.37
59194;BME280;44967;48.598;15.650;2023-02-15T05:48:37;99737.25;;;1.85;72.63
59194;BME280;44967;48.598;15.650;2023-02-15T05:51:08;99733.91;;;1.90;71.89
59194;BME280;44967;48.598;15.650;2023-02-15T05:53:35;99745.19;;;1.89;71.79
59194;BME280;44967;48.598;15.650;2023-02-15T05:56:03;99742.25;;;1.77;71.74
59194;BME280;44967;48.598;15.650;2023-02-15T05:58:34;99742.53;;;1.88;73.05
59194;BME280;44967;48.598;15.650;2023-02-15T06:01:17;99742.69;;;1.94;72.47
59194;BME280;44967;48.598;15.650;2023-02-15T06:03:44;99752.06;;;1.87;72.26
59194;BME280;44967;48.598;15.650;2023-02-15T06:06:10;99750.34;;;1.88;72.25
59194;BME280;44967;48.598;15.650;2023-02-15T06:08:36;99752.78;;;1.82;71.56
59194;BME280;44967;48.598;15.650;2023-02-15T06:11:02;99751.06;;;1.82;72.29
59194;BME280;44967;48.598;15.650;2023-02-15T06:13:29;99753.03;;;1.89;72.21
59194;BME280;44967;48.598;15.650;2023-02-15T06:15:55;99748.44;;;1.82;72.22
59194;BME280;44967;48.598;15.650;2023-02-15T06:18:20;99753.66;;;1.81;72.21
59194;BME280;44967;48.598;15.650;2023-02-15T06:20:46;99757.13;;;1.81;72.13
59194;BME280;44967;48.598;15.650;2023-02-15T06:23:12;99759.22;;;1.63;71.68
59194;BME280;44967;48.598;15.650;2023-02-15T06:25:38;99759.28;;;1.66;72.55
59194;BME280;44967;48.598;15.650;2023-02-15T06:28:03;99751.69;;;1.74;72.37
59194;BME280;44967;48.598;15.650;2023-02-15T06:30:29;99754.25;;;1.72;71.75
59194;BME280;44967;48.598;15.650;2023-02-15T06:32:54;99763.78;;;1.72;72.42
59194;BME280;44967;48.598;15.650;2023-02-15T06:35:20;99763.84;;;1.73;72.45
59194;BME280;44967;48.598;15.650;2023-02-15T06:37:47;99760.38;;;1.74;72.46
59194;BME280;44967;48.598;15.650;2023-02-15T06:40:13;99762.09;;;1.72;71.95
59194;BME280;44967;48.598;15.650;2023-02-15T06:42:39;99757.06;;;1.80;72.21
59194;BME280;44967;48.598;15.650;2023-02-15T06:45:05;99761.47;;;1.82;72.50
59194;BME280;44967;48.598;15.650;2023-02-15T06:47:30;99767.50;;;1.80;72.24
59194;BME280;44967;48.598;15.650;2023-02-15T06:49:56;99768.19;;;1.73;72.03
59194;BME280;44967;48.598;15.650;2023-02-15T06:52:23;99769.59;;;1.62;72.22
59194;BME280;44967;48.598;15.650;2023-02-15T06:54:49;99770.22;;;1.53;72.61
59194;BME280;44967;48.598;15.650;2023-02-15T06:57:15;99771.00;;;1.51;72.89
59194;BME280;44967;48.598;15.650;2023-02-15T06:59:41;99759.88;;;1.56;72.43
59194;BME280;44967;48.598;15.650;2023-02-15T07:02:08;99762.47;;;1.56;72.26
59194;BME280;44967;48.598;15.650;2023-02-15T07:04:34;99761.72;;;1.60;72.74
59194;BME280;44967;48.598;15.650;2023-02-15T07:07:00;99762.88;;;1.70;72.24
59194;BME280;44967;48.598;15.650;2023-02-15T07:09:25;99755.34;;;1.80;72.26
59194;BME280;44967;48.598;15.650;2023-02-15T07:11:51;99759.00;;;1.87;72.00
59194;BME280;44967;48.598;15.650;2023-02-15T07:14:35;99758.22;;;1.89;72.35
59194;BME280;44967;48.598;15.650;2023-02-15T07:17:00;99756.47;;;1.90;72.11
59194;BME280;44967;48.598;15.650;2023-02-15T07:19:26;99762.44;;;1.86;71.54
59194;BME280;44967;48.598;15.650;2023-02-15T07:21:51;99766.28;;;1.67;71.85
59194;BME280;44967;48.598;15.650;2023-02-15T07:24:17;99765.72;;;1.79;71.62
59194;BME280;44967;48.598;15.650;2023-02-15T07:26:43;99767.56;;;1.81;71.86
59194;BME280;44967;48.598;15.650;2023-02-15T07:29:08;99768.59;;;1.88;71.72
59194;BME280;44967;48.598;15.650;2023-02-15T07:31:34;99766.88;;;1.88;71.57
59194;BME280;44967;48.598;15.650;2023-02-15T07:34:00;99765.03;;;1.84;71.65
59194;BME280;44967;48.598;15.650;2023-02-15T07:36:26;99763.50;;;1.93;71.50
59194;BME280;44967;48.598;15.650;2023-02-15T07:38:51;99771.66;;;2.05;71.86
59194;BME280;44967;48.598;15.650;2023-02-15T07:41:17;99759.66;;;2.11;71.30
59194;BME280;44967;48.598;15.650;2023-02-15T07:43:44;99757.25;;;2.19;71.25
59194;BME280;44967;48.598;15.650;2023-02-15T07:46:15;99764.94;;;2.13;70.76
59194;BME280;44967;48.598;15.650;2023-02-15T07:48:42;99764.00;;;2.11;71.59
59194;BME280;44967;48.598;15.650;2023-02-15T07:51:09;99762.34;;;2.13;71.05
59194;BME280;44967;48.598;15.650;2023-02-15T07:53:36;99761.78;;;2.26;70.11
59194;BME280;44967;48.598;15.650;2023-02-15T07:56:12;99765.03;;;2.17;71.08
59194;BME280;44967;48.598;15.650;2023-02-15T07:58:38;99759.94;;;2.22;70.80
59194;BME280;44967;48.598;15.650;2023-02-15T08:01:20;99767.06;;;2.27;70.66
59194;BME280;44967;48.598;15.650;2023-02-15T08:03:47;99760.00;;;2.23;70.79
59194;BME280;44967;48.598;15.650;2023-02-15T08:06:12;99760.94;;;2.27;70.66
59194;BME280;44967;48.598;15.650;2023-02-15T08:08:40;99760.81;;;2.22;71.23
59194;BME280;44967;48.598;15.650;2023-02-15T08:14:09;99750.66;;;2.31;69.91
59194;BME280;44967;48.598;15.650;2023-02-15T08:19:11;99750.56;;;2.28;70.37
59194;BME280;44967;48.598;15.650;2023-02-15T08:21:42;99757.69;;;2.35;70.24
59194;BME280;44967;48.598;15.650;2023-02-15T08:24:09;99747.00;;;2.25;71.20
59194;BME280;44967;48.598;15.650;2023-02-15T08:26:35;99747.22;;;2.34;71.01
59194;BME280;44967;48.598;15.650;2023-02-15T08:29:02;99748.59;;;2.53;70.35
59194;BME280;44967;48.598;15.650;2023-02-15T08:31:28;99735.63;;;2.57;69.47
59194;BME280;44967;48.598;15.650;2023-02-15T08:33:56;99740.59;;;2.47;69.01
59194;BME280;44967;48.598;15.650;2023-02-15T08:36:31;99749.00;;;2.35;70.09
59194;BME280;44967;48.598;15.650;2023-02-15T08:39:02;99739.75;;;2.48;69.89
59194;BME280;44967;48.598;15.650;2023-02-15T08:41:32;99742.63;;;2.58;68.40
59194;BME280;44967;48.598;15.650;2023-02-15T08:43:59;99740.91;;;2.24;69.77
59194;BME280;44967;48.598;15.650;2023-02-15T08:46:28;99742.31;;;2.12;69.95
59194;BME280;44967;48.598;15.650;2023-02-15T08:48:54;99743.06;;;2.42;68.91
59194;BME280;44967;48.598;15.650;2023-02-15T08:51:22;99745.88;;;2.50;69.37
59194;BME280;44967;48.598;15.650;2023-02-15T08:53:51;99739.16;;;2.59;69.20
59194;BME280;44967;48.598;15.650;2023-02-15T08:56:18;99729.81;;;2.69;68.62
59194;BME280;44967;48.598;15.650;2023-02-15T08:58:44;99739.38;;;2.32;68.84
59194;BME280;44967;48.598;15.650;2023-02-15T09:01:11;99733.97;;;2.25;68.92
59194;BME280;44967;48.598;15.650;2023-02-15T09:03:37;99738.56;;;2.35;69.44
59194;BME280;44967;48.598;15.650;2023-02-15T09:06:03;99736.97;;;2.40;69.16
59194;BME280;44967;48.598;15.650;2023-02-15T09:08:30;99738.81;;;2.44;69.27
59194;BME280;44967;48.598;15.650;2023-02-15T09:11:17;99741.91;;;2.65;68.93
59194;BME280;44967;48.598;15.650;2023-02-15T09:13:52;99741.13;;;2.69;68.92
59194;BME280;44967;48.598;15.650;2023-02-15T09:16:19;99735.13;;;2.72;68.20
59194;BME280;44967;48.598;15.650;2023-02-15T09:18:45;99740.16;;;3.02;68.03
59194;BME280;44967;48.598;15.650;2023-02-15T09:21:16;99737.34;;;2.93;67.72
59194;BME280;44967;48.598;15.650;2023-02-15T09:23:45;99735.78;;;3.01;67.23
59194;BME280;44967;48.598;15.650;2023-02-15T09:26:13;99737.38;;;2.94;67.29
59194;BME280;44967;48.598;15.650;2023-02-15T09:28:39;99739.53;;;2.74;67.02
59194;BME280;44967;48.598;15.650;2023-02-15T09:31:16;99735.00;;;2.67;67.12
59194;BME280;44967;48.598;15.650;2023-02-15T09:33:44;99736.44;;;2.55;67.36
59194;BME280;44967;48.598;15.650;2023-02-15T09:38:46;99726.16;;;2.98;67.45
59194;BME280;44967;48.598;15.650;2023-02-15T09:41:19;99727.50;;;3.18;69.33
59194;BME280;44967;48.598;15.650;2023-02-15T09:49:45;99728.63;;;3.73;66.56
59194;BME280;44967;48.598;15.650;2023-02-15T09:52:25;99729.84;;;3.48;65.40
59194;BME280;44967;48.598;15.650;2023-02-15T10:06:32;99721.50;;;3.66;63.93
59194;BME280;44967;48.598;15.650;2023-02-15T10:09:22;99724.09;;;3.64;65.05
59194;BME280;44967;48.598;15.650;2023-02-15T10:14:52;99715.75;;;3.84;63.93
59194;BME280;44967;48.598;15.650;2023-02-15T10:28:09;99700.06;;;3.84;64.24
59194;BME280;44967;48.598;15.650;2023-02-15T10:30:49;99700.06;;;3.84;64.58
59194;BME280;44967;48.598;15.650;2023-02-15T10:39:08;99687.72;;;4.24;63.30
59194;BME280;44967;48.598;15.650;2023-02-15T10:41:51;99679.91;;;4.26;63.13
59194;BME280;44967;48.598;15.650;2023-02-15T10:47:31;99670.00;;;4.61;62.37
59194;BME280;44967;48.598;15.650;2023-02-15T11:06:06;99655.47;;;4.83;62.13
59194;BME280;44967;48.598;15.650;2023-02-15T11:08:37;99653.63;;;4.74;62.07
59194;BME280;44967;48.598;15.650;2023-02-15T11:11:07;99655.41;;;4.77;62.47
59194;BME280;44967;48.598;15.650;2023-02-15T11:13:48;99653.03;;;4.95;62.35
59194;BME280;44967;48.598;15.650;2023-02-15T11:16:32;99641.34;;;4.70;61.85
59194;BME280;44967;48.598;15.650;2023-02-15T11:21:44;99632.47;;;4.60;61.93
59194;BME280;44967;48.598;15.650;2023-02-15T11:24:13;99639.56;;;4.67;61.72
59194;BME280;44967;48.598;15.650;2023-02-15T11:26:46;99628.81;;;4.49;62.03
59194;BME280;44967;48.598;15.650;2023-02-15T11:29:33;99627.09;;;4.51;62.55
59194;BME280;44967;48.598;15.650;2023-02-15T11:32:03;99627.31;;;4.66;62.59
59194;BME280;44967;48.598;15.650;2023-02-15T11:34:44;99624.38;;;4.42;62.00
59194;BME280;44967;48.598;15.650;2023-02-15T11:37:15;99623.59;;;4.51;62.78
59194;BME280;44967;48.598;15.650;2023-02-15T11:39:43;99612.03;;;4.35;62.51
59194;BME280;44967;48.598;15.650;2023-02-15T11:42:17;99614.00;;;4.51;62.81
59194;BME280;44967;48.598;15.650;2023-02-15T11:47:37;99611.41;;;4.51;63.04
59194;BME280;44967;48.598;15.650;2023-02-15T11:50:03;99607.19;;;4.62;63.03
59194;BME280;44967;48.598;15.650;2023-02-15T11:52:29;99605.84;;;4.32;62.64
59194;BME280;44967;48.598;15.650;2023-02-15T11:54:54;99603.31;;;4.36;62.65
59194;BME280;44967;48.598;15.650;2023-02-15T11:57:39;99603.53;;;4.50;64.10
59194;BME280;44967;48.598;15.650;2023-02-15T12:00:41;99596.50;;;4.46;62.61
59194;BME280;44967;48.598;15.650;2023-02-15T12:03:42;99590.44;;;4.51;62.91
59194;BME280;44967;48.598;15.650;2023-02-15T12:06:16;99589.91;;;4.73;62.69
59194;BME280;44967;48.598;15.650;2023-02-15T12:08:50;99579.28;;;4.61;62.37
59194;BME280;44967;48.598;15.650;2023-02-15T12:11:22;99583.44;;;4.49;62.86
59194;BME280;44967;48.598;15.650;2023-02-15T12:13:55;99580.06;;;4.56;63.13
59194;BME280;44967;48.598;15.650;2023-02-15T12:16:21;99568.88;;;4.67;62.66
59194;BME280;44967;48.598;15.650;2023-02-15T12:18:47;99571.03;;;5.02;63.71
59194;BME280;44967;48.598;15.650;2023-02-15T12:21:23;99567.81;;;5.21;62.90
59194;BME280;44967;48.598;15.650;2023-02-15T12:23:52;99566.28;;;5.43;62.35
59194;BME280;44967;48.598;15.650;2023-02-15T12:26:25;99559.28;;;5.40;62.41
59194;BME280;44967;48.598;15.650;2023-02-15T12:28:52;99557.47;;;5.36;61.24
59194;BME280;44967;48.598;15.650;2023-02-15T12:31:26;99550.47;;;5.35;61.83
59194;BME280;44967;48.598;15.650;2023-02-15T12:33:54;99547.78;;;5.28;61.79
59194;BME280;44967;48.598;15.650;2023-02-15T12:36:24;99556.66;;;5.42;62.16
59194;BME280;44967;48.598;15.650;2023-02-15T12:44:37;99557.81;;;5.71;61.15
59194;BME280;44967;48.598;15.650;2023-02-15T12:49:34;99548.97;;;5.61;60.72
59194;BME280;44967;48.598;15.650;2023-02-15T12:52:02;99541.13;;;5.60;61.81
59194;BME280;44967;48.598;15.650;2023-02-15T12:54:39;99543.81;;;5.67;60.88
59194;BME280;44967;48.598;15.650;2023-02-15T12:57:33;99538.59;;;5.70;60.54
59194;BME280;44967;48.598;15.650;2023-02-15T13:00:00;99542.91;;;5.64;60.34
59194;BME280;44967;48.598;15.650;2023-02-15T13:02:46;99534.00;;;5.50;60.48
59194;BME280;44967;48.598;15.650;2023-02-15T13:07:55;99533.34;;;5.70;61.15
59194;BME280;44967;48.598;15.650;2023-02-15T13:10:31;99531.63;;;5.76;61.05
59194;BME280;44967;48.598;15.650;2023-02-15T13:12:59;99531.63;;;5.73;61.35
59194;BME280;44967;48.598;15.650;2023-02-15T13:15:48;99523.00;;;5.89;61.15
59194;BME280;44967;48.598;15.650;2023-02-15T13:18:18;99527.25;;;5.75;61.04
59194;BME280;44967;48.598;15.650;2023-02-15T13:20:45;99515.94;;;5.80;60.27
59194;BME280;44967;48.598;15.650;2023-02-15T13:23:28;99526.44;;;5.85;61.15
59194;BME280;44967;48.598;15.650;2023-02-15T13:25:58;99526.66;;;6.03;60.28
59194;BME280;44967;48.598;15.650;2023-02-15T13:28:31;99525.75;;;5.99;59.92
59194;BME280;44967;48.598;15.650;2023-02-15T13:31:01;99524.94;;;6.08;60.06
59194;BME280;44967;48.598;15.650;2023-02-15T13:33:33;99524.78;;;5.90;60.68
59194;BME280;44967;48.598;15.650;2023-02-15T13:36:17;99523.81;;;5.82;60.84
59194;BME280;44967;48.598;15.650;2023-02-15T13:41:29;99521.34;;;5.97;60.19
59194;BME280;44967;48.598;15.650;2023-02-15T13:44:15;99527.38;;;5.87;60.08
59194;BME280;44967;48.598;15.650;2023-02-15T13:46:58;99521.19;;;5.85;59.26
59194;BME280;44967;48.598;15.650;2023-02-15T13:49:43;99515.19;;;5.93;59.61
59194;BME280;44967;48.598;15.650;2023-02-15T13:52:19;99512.59;;;5.98;58.78
59194;BME280;44967;48.598;15.650;2023-02-15T14:02:38;99496.69;;;5.77;59.62
59194;BME280;44967;48.598;15.650;2023-02-15T14:05:27;99501.16;;;5.87;59.53
59194;BME280;44967;48.598;15.650;2023-02-15T14:16:47;99501.09;;;5.82;59.82
59194;BME280;44967;48.598;15.650;2023-02-15T14:25:18;99493.25;;;5.84;59.82
59194;BME280;44967;48.598;15.650;2023-02-15T14:28:12;99493.19;;;5.78;59.48
59194;BME280;44967;48.598;15.650;2023-02-15T14:30:44;99495.84;;;5.82;60.45
59194;BME280;44967;48.598;15.650;2023-02-15T14:35:41;99496.66;;;5.75;60.40
59194;BME280;44967;48.598;15.650;2023-02-15T14:43:47;99499.94;;;5.50;59.69
59194;BME280;44967;48.598;15.650;2023-02-15T14:49:35;99490.34;;;5.52;60.45
59194;BME280;44967;48.598;15.650;2023-02-15T14:52:08;99489.47;;;5.51;60.65
59194;BME280;44967;48.598;15.650;2023-02-15T14:59:52;99494.75;;;5.53;60.72
59194;BME280;44967;48.598;15.650;2023-02-15T15:02:48;99494.69;;;5.48;60.58
59194;BME280;44967;48.598;15.650;2023-02-15T15:05:23;99496.44;;;5.49;60.74
59194;BME280;44967;48.598;15.650;2023-02-15T15:07:52;99493.88;;;5.55;60.78
59194;BME280;44967;48.598;15.650;2023-02-15T15:12:47;99480.53;;;5.28;61.41
59194;BME280;44967;48.598;15.650;2023-02-15T15:15:45;99486.59;;;5.24;61.69
59194;BME280;44967;48.598;15.650;2023-02-15T15:18:44;99476.09;;;5.22;61.79
59194;BME280;44967;48.598;15.650;2023-02-15T15:21:10;99482.19;;;5.20;61.28
59194;BME280;44967;48.598;15.650;2023-02-15T15:23:45;99469.81;;;5.04;61.31
59194;BME280;44967;48.598;15.650;2023-02-15T15:26:23;99480.25;;;5.01;61.41
59194;BME280;44967;48.598;15.650;2023-02-15T15:31:40;99472.94;;;4.72;62.62
59194;BME280;44967;48.598;15.650;2023-02-15T15:37:46;99465.66;;;4.47;63.02
59194;BME280;44967;48.598;15.650;2023-02-15T15:43:00;99463.75;;;4.34;63.55
59194;BME280;44967;48.598;15.650;2023-02-15T15:48:36;99460.00;;;4.14;64.12
59194;BME280;44967;48.598;15.650;2023-02-15T15:51:20;99458.97;;;4.03;64.46
59194;BME280;44967;48.598;15.650;2023-02-15T15:53:49;99456.28;;;4.00;64.87
59194;BME280;44967;48.598;15.650;2023-02-15T15:56:27;99463.09;;;3.89;64.96
59194;BME280;44967;48.598;15.650;2023-02-15T15:59:02;99462.91;;;3.76;65.38